createdAt,value
2023-03-26T09:01:13.337Z,112.50
2023-03-26T09:01:47.534Z,112.50
2023-03-26T09:02:47.668Z,118.12
2023-03-26T09:03:47.676Z,118.12
2023-03-26T09:04:47.409Z,123.75
2023-03-26T09:05:47.435Z,123.75
2023-03-26T09:06:47.489Z,129.38
2023-03-26T09:07:47.358Z,135.00
2023-03-26T09:08:53.843Z,140.62
2023-03-26T09:09:48.353Z,146.25
2023-03-26T09:10:47.418Z,146.25
2023-03-26T09:11:47.411Z,151.88
2023-03-26T09:12:47.268Z,151.88
2023-03-26T09:14:08.085Z,151.88
2023-03-26T09:14:47.295Z,151.88
2023-03-26T09:15:47.486Z,151.88
2023-03-26T09:16:47.394Z,151.88
2023-03-26T09:17:47.477Z,151.88
2023-03-26T09:18:47.332Z,157.50
2023-03-26T09:19:47.364Z,163.12
2023-03-26T09:20:47.369Z,168.75
2023-03-26T09:21:47.402Z,174.38
2023-03-26T09:22:47.450Z,180.00
2023-03-26T09:23:47.420Z,180.00
2023-03-26T09:24:47.318Z,180.00
2023-03-26T09:25:47.355Z,180.00
2023-03-26T09:26:47.271Z,180.00
2023-03-26T09:27:47.223Z,180.00
2023-03-26T09:28:47.276Z,180.00
2023-03-26T09:29:47.250Z,180.00
2023-03-26T09:30:47.227Z,180.00
2023-03-26T09:31:47.401Z,180.00
2023-03-26T09:32:47.277Z,180.00
2023-03-26T09:33:47.267Z,174.38
2023-03-26T09:34:47.302Z,174.38
2023-03-26T09:35:47.220Z,168.75
2023-03-26T09:36:47.810Z,168.75
2023-03-26T09:37:56.420Z,168.75
2023-03-26T09:38:48.365Z,168.75
2023-03-26T09:41:40.580Z,168.75
2023-03-26T09:42:42.063Z,168.75
2023-03-26T09:43:42.013Z,168.75
2023-03-26T09:44:42.262Z,163.12
2023-03-26T09:45:42.165Z,163.12
2023-03-26T09:46:41.852Z,157.50
2023-03-26T09:47:41.846Z,157.50
2023-03-26T09:48:42.732Z,157.50
2023-03-26T09:49:41.793Z,163.12
2023-03-26T09:50:41.612Z,163.12
2023-03-26T09:51:41.740Z,163.12
2023-03-26T09:52:41.681Z,157.50
2023-03-26T09:53:41.652Z,157.50
2023-03-26T09:54:41.623Z,163.12
2023-03-26T09:56:02.127Z,163.12
2023-03-26T09:56:41.646Z,168.75
2023-03-26T09:57:41.795Z,168.75
2023-03-26T10:37:39.948Z,50.62
2023-03-26T10:38:41.154Z,50.62
2023-03-26T10:39:41.627Z,56.25
2023-03-26T10:40:40.087Z,67.50
2023-03-26T10:41:40.686Z,78.75
2023-03-26T10:42:40.070Z,78.75
2023-03-26T10:43:39.974Z,78.75
2023-03-26T10:44:39.981Z,78.75
2023-03-26T10:45:40.158Z,84.38
2023-03-26T10:46:40.280Z,95.62
2023-03-26T10:47:40.750Z,106.88
2023-03-26T10:48:39.999Z,118.12
2023-03-26T10:49:40.519Z,123.75
2023-03-26T10:50:40.289Z,123.75
2023-03-26T10:51:40.399Z,129.38
2023-03-26T10:52:40.005Z,135.00
2023-03-26T10:53:40.223Z,135.00
2023-03-26T10:54:40.227Z,140.62
2023-03-26T10:55:40.248Z,146.25
2023-03-26T11:50:58.724Z,95.62
2023-03-26T11:51:30.858Z,101.25
2023-03-26T11:52:30.806Z,101.25
2023-03-26T11:53:31.206Z,106.88
2023-03-26T11:54:31.117Z,106.88
2023-03-26T11:55:44.545Z,112.50
2023-03-26T11:56:31.724Z,112.50
2023-03-26T11:57:31.228Z,118.12
2023-03-26T11:58:31.984Z,118.12
2023-03-26T11:59:32.690Z,118.12
2023-03-26T12:00:45.736Z,118.12
2023-03-26T12:01:32.437Z,118.12
2023-03-26T12:02:31.213Z,118.12
2023-03-26T12:03:33.213Z,118.12
2023-03-26T12:04:32.305Z,118.12
2023-03-26T12:05:31.971Z,118.12
2023-03-26T12:06:31.007Z,118.12
2023-03-26T12:07:31.093Z,123.75
2023-03-26T12:08:30.874Z,135.00
2023-03-26T12:09:30.672Z,151.88
2023-03-26T12:10:30.736Z,163.12
2023-03-26T15:31:02.442Z,78.75
2023-03-26T15:31:10.371Z,78.75
2023-03-26T15:32:04.845Z,78.75
2023-03-26T15:33:05.035Z,78.75
2023-03-26T15:34:04.885Z,84.38
2023-03-26T15:35:04.989Z,84.38
2023-03-26T15:36:05.229Z,84.38
2023-03-26T15:37:04.799Z,78.75
2023-03-26T15:38:04.714Z,78.75
2023-03-26T15:39:04.802Z,78.75
2023-03-26T15:40:04.967Z,78.75
2023-03-26T15:41:04.892Z,78.75
2023-03-26T15:42:04.611Z,78.75
2023-03-26T15:43:04.701Z,73.12
2023-03-26T15:44:23.680Z,73.12
2023-03-26T15:45:06.703Z,73.12
2023-03-26T15:46:04.975Z,67.50
2023-03-26T15:47:04.709Z,67.50
2023-03-26T15:48:04.934Z,67.50
2023-03-26T15:49:04.787Z,67.50
2023-03-26T15:50:04.841Z,67.50
2023-03-26T15:51:04.345Z,61.88
2023-03-26T15:52:04.776Z,61.88
2023-03-26T15:53:04.677Z,61.88
2023-03-26T15:54:04.673Z,61.88
2023-03-26T15:55:04.614Z,61.88
2023-03-26T15:56:04.782Z,61.88
2023-03-26T15:57:04.831Z,61.88
2023-03-26T15:58:04.947Z,61.88
2023-03-26T15:59:04.597Z,61.88
2023-03-26T16:00:04.699Z,67.50
2023-03-26T16:01:04.904Z,67.50
2023-03-26T16:02:04.572Z,67.50
2023-03-26T16:03:05.082Z,67.50
2023-03-26T16:04:04.761Z,73.12
2023-03-26T16:05:04.705Z,73.12
2023-03-26T16:06:04.755Z,73.12
2023-03-26T16:07:04.450Z,78.75
2023-03-26T16:08:04.719Z,78.75
2023-03-26T16:09:04.943Z,78.75
2023-03-26T16:10:04.643Z,78.75
2023-03-26T16:11:04.993Z,84.38
2023-03-26T16:12:04.825Z,78.75
2023-03-26T16:13:04.574Z,78.75
2023-03-26T16:14:04.833Z,78.75
2023-03-26T16:15:04.635Z,78.75
2023-03-26T16:16:04.619Z,78.75
2023-03-26T16:17:04.471Z,78.75
2023-03-26T16:18:04.667Z,73.12
2023-03-26T16:19:05.361Z,73.12
2023-03-26T16:20:04.531Z,73.12
2023-03-26T16:21:04.461Z,73.12
2023-03-26T16:22:04.355Z,73.12
2023-03-26T16:23:04.303Z,73.12
2023-03-26T16:24:04.576Z,73.12
2023-03-26T16:25:26.599Z,73.12
2023-03-26T16:26:05.435Z,73.12
2023-03-26T16:27:04.907Z,73.12
2023-03-26T16:28:04.557Z,73.12
2023-03-26T16:30:04.433Z,73.12
2023-03-26T16:31:05.221Z,67.50
2023-03-26T16:32:05.390Z,67.50
2023-03-26T16:33:04.454Z,67.50
2023-03-26T16:34:04.502Z,61.88
2023-03-26T16:35:04.488Z,61.88
2023-03-26T16:36:04.783Z,61.88
2023-03-26T16:37:04.544Z,56.25
2023-03-26T16:38:04.546Z,56.25
2023-03-26T16:39:04.737Z,56.25
2023-03-26T16:40:04.608Z,56.25
2023-03-26T16:41:04.425Z,56.25
2023-03-26T16:42:06.294Z,50.62
2023-03-26T16:43:04.612Z,50.62
2023-03-26T16:49:31.966Z,39.38
2023-03-26T16:50:33.576Z,33.75
2023-03-26T16:51:33.447Z,33.75
2023-03-26T16:52:33.527Z,33.75
2023-03-26T16:53:33.901Z,33.75
2023-03-26T16:54:36.872Z,33.75
2023-03-26T16:55:34.566Z,33.75
2023-03-26T16:56:33.609Z,33.75
2023-03-26T16:57:33.925Z,33.75
2023-03-26T16:58:33.842Z,33.75
2023-03-26T16:59:34.515Z,33.75
2023-03-26T17:00:33.619Z,33.75
2023-03-26T17:01:33.638Z,28.12
2023-03-26T17:02:33.447Z,28.12
2023-03-26T17:03:33.512Z,28.12
2023-03-26T17:04:33.747Z,28.12
2023-03-26T17:05:33.429Z,22.50
2023-03-26T17:06:33.349Z,22.50
2023-03-26T17:07:33.589Z,22.50
2023-03-26T17:08:36.446Z,22.50
2023-03-26T17:09:33.879Z,16.88
2023-03-26T17:10:33.680Z,16.88
2023-03-26T17:11:33.399Z,16.88
2023-03-26T17:12:34.527Z,16.88
2023-03-26T17:13:33.573Z,16.88
2023-03-26T17:14:33.530Z,11.25
2023-03-26T17:15:34.637Z,11.25
2023-03-26T17:16:33.503Z,11.25
2023-03-26T17:17:33.467Z,11.25
2023-03-26T17:18:33.537Z,11.25
2023-03-26T17:19:33.462Z,5.62
2023-03-26T17:20:33.592Z,5.62
2023-03-26T17:21:45.887Z,5.62
2023-03-26T17:22:34.394Z,5.62
2023-03-26T17:23:33.326Z,5.62
2023-03-26T17:24:33.228Z,5.62
2023-03-26T17:25:33.230Z,5.62
2023-03-26T17:26:33.573Z,5.62
2023-03-26T17:27:33.353Z,5.62
2023-03-26T17:28:33.313Z,5.62
2023-03-26T17:29:34.201Z,5.62
2023-03-26T17:30:33.335Z,5.62
2023-03-26T17:31:33.791Z,5.62
2023-03-26T17:32:33.290Z,0.00
2023-03-26T17:33:34.603Z,0.00
2023-03-26T17:34:33.398Z,0.00
2023-03-26T17:35:33.367Z,0.00
2023-03-26T17:36:34.490Z,0.00
2023-03-26T17:37:33.262Z,0.00
2023-03-26T17:38:33.105Z,0.00
2023-03-26T17:39:33.226Z,0.00
2023-03-26T17:40:33.209Z,0.00
2023-03-26T17:41:33.283Z,0.00
2023-03-26T17:42:33.525Z,0.00
2023-03-26T17:43:33.283Z,0.00
2023-03-26T17:44:33.231Z,0.00
2023-03-26T17:45:33.242Z,0.00
2023-03-26T17:46:33.365Z,0.00
2023-03-26T17:47:33.260Z,0.00
2023-03-26T17:48:33.201Z,0.00
2023-03-26T17:49:33.742Z,0.00
2023-03-26T19:56:21.975Z,0.00
2023-03-26T19:57:23.348Z,0.00
2023-03-26T19:58:23.625Z,0.00
2023-03-26T19:59:23.066Z,0.00
2023-03-26T20:00:23.165Z,0.00
2023-03-26T20:01:23.372Z,0.00
2023-03-26T20:02:23.040Z,0.00
2023-03-26T20:03:23.402Z,0.00
2023-03-26T20:04:23.071Z,0.00
2023-03-26T20:05:24.068Z,0.00
2023-03-26T20:06:28.148Z,0.00
2023-03-26T20:07:35.674Z,0.00
2023-03-26T20:08:24.104Z,0.00
2023-03-26T20:09:23.200Z,0.00
2023-03-26T20:10:22.937Z,0.00
2023-03-26T20:11:23.074Z,0.00
2023-03-26T20:12:24.592Z,0.00
2023-03-26T20:13:23.118Z,0.00
2023-03-26T20:14:24.078Z,0.00
2023-03-26T20:15:23.030Z,0.00
2023-03-26T20:16:23.206Z,0.00
2023-03-26T20:17:22.930Z,0.00
2023-03-26T20:18:23.346Z,0.00
2023-03-26T20:19:30.427Z,0.00
2023-03-26T20:20:22.861Z,0.00
2023-03-26T20:21:23.019Z,0.00
2023-03-26T20:22:22.954Z,0.00
2023-03-26T20:23:27.139Z,0.00
2023-03-26T20:24:22.963Z,0.00
2023-03-26T20:25:23.131Z,0.00
2023-03-26T20:26:30.274Z,0.00
2023-03-26T20:27:22.960Z,0.00
2023-03-26T20:28:23.041Z,0.00
2023-03-26T20:29:22.911Z,0.00
2023-03-26T21:00:21.275Z,0.00
2023-03-26T21:01:02.622Z,0.00
2023-03-26T21:02:02.453Z,0.00
2023-03-26T21:03:02.273Z,0.00
2023-03-26T21:04:04.280Z,0.00
2023-03-26T21:05:02.098Z,0.00
2023-03-26T21:28:05.419Z,0.00
2023-03-26T21:28:42.260Z,0.00
2023-03-26T21:29:39.443Z,0.00
2023-03-26T21:30:37.209Z,0.00
2023-03-26T21:31:37.457Z,0.00
2023-03-26T21:32:37.491Z,0.00
2023-03-26T21:45:56.448Z,0.00
2023-03-26T21:46:53.400Z,0.00
